createdAt,value
2022-08-21T00:00:51.069Z,44.29
2022-08-21T00:01:51.168Z,44.29
2022-08-21T00:02:51.118Z,44.31
2022-08-21T00:03:51.069Z,44.38
2022-08-21T00:04:57.278Z,44.58
2022-08-21T00:05:51.070Z,44.60
2022-08-21T00:06:51.071Z,44.38
2022-08-21T00:07:51.072Z,44.38
2022-08-21T00:08:51.075Z,44.48
2022-08-21T00:09:51.073Z,44.58
2022-08-21T00:10:51.077Z,44.58
2022-08-21T00:11:51.078Z,44.29
2022-08-21T00:12:51.155Z,44.38
2022-08-21T00:13:51.075Z,44.19
2022-08-21T00:14:51.077Z,44.38
2022-08-21T00:15:51.078Z,44.38
2022-08-21T00:16:51.078Z,44.38
2022-08-21T00:17:51.077Z,44.38
2022-08-21T00:18:51.078Z,44.29
2022-08-21T00:19:51.078Z,44.51
2022-08-21T00:20:51.081Z,44.00
2022-08-21T00:21:51.081Z,44.48
2022-08-21T00:22:51.140Z,43.90
2022-08-21T00:23:51.081Z,44.48
2022-08-21T00:24:51.084Z,44.48
2022-08-21T00:25:51.084Z,44.09
2022-08-21T00:26:51.085Z,44.09
2022-08-21T00:27:51.083Z,44.09
2022-08-21T00:28:51.085Z,44.29
2022-08-21T00:29:51.086Z,44.09
2022-08-21T00:30:51.087Z,44.09
2022-08-21T00:31:51.089Z,44.48
2022-08-21T00:32:51.149Z,44.29
2022-08-21T00:33:51.088Z,44.09
2022-08-21T00:34:51.089Z,44.29
2022-08-21T00:35:51.089Z,44.58
2022-08-21T00:36:51.092Z,44.51
2022-08-21T00:37:51.091Z,44.00
2022-08-21T00:38:51.093Z,44.58
2022-08-21T00:39:51.155Z,44.68
2022-08-21T00:40:51.094Z,44.19
2022-08-21T00:41:51.093Z,44.48
2022-08-21T00:42:53.663Z,44.38
2022-08-21T00:43:51.096Z,44.58
2022-08-21T00:44:51.096Z,44.48
2022-08-21T00:45:51.101Z,44.58
2022-08-21T00:46:51.299Z,44.19
2022-08-21T00:47:51.100Z,44.19
2022-08-21T00:48:51.102Z,44.38
2022-08-21T00:49:51.099Z,44.48
2022-08-21T00:50:51.102Z,44.48
2022-08-21T00:51:51.101Z,44.51
2022-08-21T00:52:51.242Z,44.51
2022-08-21T00:53:53.566Z,44.09
2022-08-21T00:54:51.103Z,43.90
2022-08-21T00:55:51.102Z,44.09
2022-08-21T00:56:51.216Z,44.48
2022-08-21T00:57:51.381Z,44.48
2022-08-21T00:58:54.801Z,44.68
2022-08-21T00:59:51.105Z,44.68
2022-08-21T01:00:51.178Z,44.38
2022-08-21T01:01:51.107Z,44.58
2022-08-21T01:02:51.159Z,44.29
2022-08-21T01:03:51.110Z,44.38
2022-08-21T01:04:51.110Z,44.58
2022-08-21T01:05:51.108Z,44.48
2022-08-21T01:06:51.111Z,44.29
2022-08-21T01:07:51.114Z,44.38
2022-08-21T01:08:51.113Z,44.38
2022-08-21T01:09:51.112Z,44.19
2022-08-21T01:10:54.470Z,44.19
2022-08-21T01:11:51.115Z,44.48
2022-08-21T01:12:51.171Z,44.38
2022-08-21T01:13:51.115Z,44.19
2022-08-21T01:14:51.116Z,44.48
2022-08-21T01:15:51.116Z,44.19
2022-08-21T01:16:51.117Z,44.58
2022-08-21T01:17:51.116Z,44.19
2022-08-21T01:18:51.119Z,44.58
2022-08-21T01:19:51.121Z,44.58
2022-08-21T01:20:51.121Z,44.68
2022-08-21T01:21:51.119Z,44.58
2022-08-21T01:22:51.218Z,44.38
2022-08-21T01:23:51.122Z,44.48
2022-08-21T01:24:51.122Z,44.19
2022-08-21T01:25:51.123Z,44.38
2022-08-21T01:26:51.123Z,44.68
2022-08-21T01:27:51.125Z,44.48
2022-08-21T01:28:51.126Z,44.58
2022-08-21T01:29:51.126Z,44.38
2022-08-21T01:30:51.126Z,44.19
2022-08-21T01:31:51.127Z,44.58
2022-08-21T01:32:51.164Z,44.48
2022-08-21T01:33:51.129Z,44.48
2022-08-21T01:34:51.128Z,44.29
2022-08-21T01:35:51.128Z,44.58
2022-08-21T01:36:51.130Z,44.48
2022-08-21T01:37:51.132Z,44.58
2022-08-21T01:38:51.131Z,44.58
2022-08-21T01:39:51.182Z,44.58
2022-08-21T01:40:51.134Z,44.38
2022-08-21T01:41:51.139Z,44.38
2022-08-21T01:42:51.193Z,44.48
2022-08-21T01:43:51.133Z,44.58
2022-08-21T01:44:51.136Z,44.38
2022-08-21T01:45:51.137Z,44.19
2022-08-21T01:46:51.136Z,44.21
2022-08-21T01:47:51.136Z,44.48
2022-08-21T01:48:51.142Z,44.48
2022-08-21T01:49:51.138Z,44.51
2022-08-21T01:50:52.851Z,44.58
2022-08-21T01:51:51.140Z,44.48
2022-08-21T01:52:51.171Z,44.60
2022-08-21T01:53:51.143Z,44.38
2022-08-21T01:54:55.196Z,44.38
2022-08-21T01:55:51.142Z,44.48
2022-08-21T01:56:51.146Z,44.51
2022-08-21T01:57:51.144Z,44.58
2022-08-21T01:58:51.145Z,44.48
2022-08-21T01:59:51.145Z,44.21
2022-08-21T02:00:51.225Z,44.48
2022-08-21T02:01:51.145Z,44.09
2022-08-21T02:02:51.177Z,44.29
2022-08-21T02:03:51.146Z,44.48
2022-08-21T02:04:51.149Z,44.58
2022-08-21T02:05:51.149Z,44.48
2022-08-21T02:06:51.150Z,44.09
2022-08-21T02:07:51.149Z,44.09
2022-08-21T02:08:51.151Z,44.09
2022-08-21T02:09:51.154Z,44.09
2022-08-21T02:10:51.152Z,44.09
2022-08-21T02:11:51.151Z,44.48
2022-08-21T02:12:51.204Z,43.90
2022-08-21T02:13:51.155Z,44.00
2022-08-21T02:14:51.154Z,44.12
2022-08-21T02:15:51.154Z,44.58
2022-08-21T02:16:51.156Z,44.58
2022-08-21T02:17:51.158Z,44.48
2022-08-21T02:18:51.156Z,44.48
2022-08-21T02:19:51.157Z,44.60
2022-08-21T02:20:55.682Z,44.48
2022-08-21T02:21:51.163Z,44.58
2022-08-21T02:22:51.200Z,44.68
2022-08-21T02:23:51.161Z,44.58
2022-08-21T02:24:55.001Z,44.29
2022-08-21T02:25:51.161Z,44.09
2022-08-21T02:26:51.168Z,44.48
2022-08-21T02:27:51.165Z,44.09
2022-08-21T02:28:51.164Z,44.09
2022-08-21T02:29:51.165Z,44.48
2022-08-21T02:30:51.166Z,44.29
2022-08-21T02:31:51.167Z,44.12
2022-08-21T02:32:51.239Z,44.31
2022-08-21T02:33:51.169Z,44.48
2022-08-21T02:34:51.168Z,44.51
2022-08-21T02:35:51.187Z,44.58
2022-08-21T02:36:59.516Z,44.48
2022-08-21T02:37:51.171Z,44.00
2022-08-21T02:38:51.171Z,44.51
2022-08-21T02:39:51.244Z,44.48
2022-08-21T02:40:51.334Z,44.58
2022-08-21T02:41:51.172Z,44.12
2022-08-21T02:42:51.174Z,44.21
2022-08-21T02:43:51.177Z,44.68
2022-08-21T02:44:51.175Z,44.51
2022-08-21T02:45:51.175Z,44.70
2022-08-21T02:46:51.176Z,44.48
2022-08-21T02:47:51.181Z,44.21
2022-08-21T02:48:51.178Z,44.09
2022-08-21T02:49:51.178Z,44.29
2022-08-21T02:50:51.179Z,43.92
2022-08-21T02:51:51.179Z,44.12
2022-08-21T02:52:56.123Z,44.29
2022-08-21T02:53:51.180Z,44.19
2022-08-21T02:54:51.182Z,44.68
2022-08-21T02:55:51.180Z,44.02
2022-08-21T02:56:51.183Z,44.12
2022-08-21T02:57:51.183Z,43.90
2022-08-21T02:58:51.184Z,44.31
2022-08-21T02:59:51.183Z,44.09
2022-08-21T03:00:51.188Z,44.09
2022-08-21T03:01:51.217Z,44.21
2022-08-21T03:02:51.215Z,43.90
2022-08-21T03:03:51.186Z,44.29
2022-08-21T03:04:51.189Z,44.31
2022-08-21T03:05:51.189Z,44.09
2022-08-21T03:06:51.190Z,44.21
2022-08-21T03:07:51.189Z,44.19
2022-08-21T03:08:51.190Z,44.00
2022-08-21T03:09:55.875Z,44.48
2022-08-21T03:10:51.192Z,44.41
2022-08-21T03:11:51.192Z,44.19
2022-08-21T03:12:51.246Z,44.68
2022-08-21T03:13:51.193Z,44.48
2022-08-21T03:14:51.193Z,44.48
2022-08-21T03:15:51.197Z,44.29
2022-08-21T03:16:51.194Z,44.60
2022-08-21T03:17:51.195Z,44.29
2022-08-21T03:18:51.198Z,44.68
2022-08-21T03:19:51.196Z,44.48
2022-08-21T03:20:51.198Z,44.29
2022-08-21T03:21:51.199Z,44.70
2022-08-21T03:22:53.160Z,44.68
2022-08-21T03:23:51.199Z,44.09
2022-08-21T03:24:51.201Z,44.68
2022-08-21T03:25:51.200Z,44.68
2022-08-21T03:26:51.201Z,44.38
2022-08-21T03:27:51.201Z,44.48
2022-08-21T03:28:51.203Z,44.29
2022-08-21T03:29:51.203Z,44.09
2022-08-21T03:30:51.206Z,44.09
2022-08-21T03:31:51.204Z,44.48
2022-08-21T03:32:51.222Z,44.09
2022-08-21T03:33:51.206Z,43.90
2022-08-21T03:34:51.208Z,44.19
2022-08-21T03:35:51.207Z,44.09
2022-08-21T03:36:51.210Z,43.90
2022-08-21T03:37:51.208Z,44.09
2022-08-21T03:38:51.460Z,44.09
2022-08-21T03:39:51.243Z,44.09
2022-08-21T03:40:51.211Z,44.19
2022-08-21T03:41:51.213Z,44.41
2022-08-21T03:42:51.249Z,44.58
2022-08-21T03:43:51.227Z,44.29
2022-08-21T03:44:51.212Z,44.19
2022-08-21T03:45:52.544Z,44.19
2022-08-21T03:46:51.214Z,44.09
2022-08-21T03:47:51.215Z,44.19
2022-08-21T03:48:51.215Z,44.09
2022-08-21T03:49:51.219Z,44.00
2022-08-21T03:50:51.216Z,44.29
2022-08-21T03:51:59.656Z,44.19
2022-08-21T03:52:51.273Z,44.29
2022-08-21T03:53:51.221Z,44.00
2022-08-21T03:54:51.218Z,44.31
2022-08-21T03:55:51.221Z,44.31
2022-08-21T03:56:51.221Z,44.29
2022-08-21T03:57:51.227Z,43.90
2022-08-21T03:58:51.232Z,44.19
2022-08-21T03:59:51.223Z,44.09
2022-08-21T04:00:51.227Z,44.09
2022-08-21T04:01:51.251Z,44.09
2022-08-21T04:02:51.331Z,44.19
2022-08-21T04:03:51.225Z,44.29
2022-08-21T04:04:51.225Z,44.19
2022-08-21T04:05:51.227Z,44.19
2022-08-21T04:06:51.226Z,44.19
2022-08-21T04:07:51.232Z,44.19
2022-08-21T04:08:51.227Z,44.29
2022-08-21T04:09:51.230Z,44.00
2022-08-21T04:10:51.232Z,44.09
2022-08-21T04:11:51.231Z,44.09
2022-08-21T04:12:51.299Z,44.29
2022-08-21T04:13:51.233Z,44.19
2022-08-21T04:14:51.232Z,44.19
2022-08-21T04:15:51.252Z,44.19
2022-08-21T04:16:51.237Z,44.19
2022-08-21T04:17:51.235Z,44.38
2022-08-21T04:18:51.233Z,44.38
2022-08-21T04:19:53.792Z,44.09
2022-08-21T04:20:51.235Z,44.09
2022-08-21T04:21:52.524Z,44.29
2022-08-21T04:22:51.256Z,44.19
2022-08-21T04:23:51.241Z,44.29
2022-08-21T04:24:51.249Z,44.19
2022-08-21T04:25:51.241Z,44.38
2022-08-21T04:26:51.240Z,44.48
2022-08-21T04:27:51.240Z,44.21
2022-08-21T04:28:51.240Z,44.48
2022-08-21T04:29:51.245Z,44.51
2022-08-21T04:30:51.242Z,44.00
2022-08-21T04:31:51.245Z,44.38
2022-08-21T04:32:51.300Z,43.90
2022-08-21T04:33:51.247Z,43.90
2022-08-21T04:34:51.245Z,44.38
2022-08-21T04:35:51.247Z,44.09
2022-08-21T04:36:51.245Z,44.29
2022-08-21T04:37:51.248Z,44.00
2022-08-21T04:38:51.248Z,44.00
2022-08-21T04:39:53.520Z,43.90
2022-08-21T04:40:51.247Z,44.00
2022-08-21T04:41:51.250Z,43.71
2022-08-21T04:42:51.327Z,44.00
2022-08-21T04:43:51.251Z,43.80
2022-08-21T04:44:51.252Z,43.80
2022-08-21T04:45:51.252Z,44.09
2022-08-21T04:46:51.255Z,44.00
2022-08-21T04:47:52.646Z,43.80
2022-08-21T04:48:51.254Z,43.82
2022-08-21T04:49:51.256Z,43.90
2022-08-21T04:50:51.253Z,43.90
2022-08-21T04:51:51.257Z,43.90
2022-08-21T04:52:51.385Z,43.71
2022-08-21T04:53:51.259Z,43.90
2022-08-21T04:54:54.800Z,43.90
2022-08-21T04:55:51.259Z,44.00
2022-08-21T04:56:51.258Z,44.00
2022-08-21T04:57:51.260Z,43.80
2022-08-21T04:58:51.259Z,44.00
2022-08-21T04:59:51.262Z,43.71
2022-08-21T05:00:51.261Z,43.71
2022-08-21T05:01:51.370Z,43.71
2022-08-21T05:02:51.360Z,44.00
2022-08-21T05:03:51.264Z,44.00
2022-08-21T05:04:51.264Z,43.82
2022-08-21T05:05:51.267Z,43.71
2022-08-21T05:06:51.265Z,43.80
2022-08-21T05:07:51.265Z,43.61
2022-08-21T05:08:51.267Z,44.09
2022-08-21T05:09:51.269Z,44.09
2022-08-21T05:10:51.266Z,43.71
2022-08-21T05:11:51.270Z,43.92
2022-08-21T05:12:51.286Z,43.61
2022-08-21T05:13:56.328Z,43.90
2022-08-21T05:14:51.271Z,43.90
2022-08-21T05:15:51.271Z,44.00
2022-08-21T05:16:51.272Z,44.09
2022-08-21T05:17:55.497Z,43.61
2022-08-21T05:18:51.272Z,44.00
2022-08-21T05:19:51.283Z,44.00
2022-08-21T05:20:51.275Z,44.12
2022-08-21T05:21:51.275Z,44.00
2022-08-21T05:22:51.313Z,44.09
2022-08-21T05:23:51.277Z,44.09
2022-08-21T05:24:51.276Z,43.92
2022-08-21T05:25:51.284Z,44.09
2022-08-21T05:26:51.276Z,44.09
2022-08-21T05:27:52.335Z,44.09
2022-08-21T05:28:51.280Z,44.09
2022-08-21T05:29:51.282Z,43.90
2022-08-21T05:30:51.281Z,43.90
2022-08-21T05:31:51.282Z,44.09
2022-08-21T05:32:51.380Z,44.00
2022-08-21T05:33:51.950Z,43.90
2022-08-21T05:34:51.283Z,44.09
2022-08-21T05:35:51.286Z,44.09
2022-08-21T05:36:51.283Z,43.90
2022-08-21T05:37:51.287Z,44.00
2022-08-21T05:38:51.287Z,44.00
2022-08-21T05:40:20.141Z,44.00
2022-08-21T05:40:51.347Z,44.00
2022-08-21T05:41:51.292Z,44.19
2022-08-21T05:42:54.373Z,44.09
2022-08-21T05:43:51.290Z,43.80
2022-08-21T05:44:51.291Z,43.90
2022-08-21T05:45:51.290Z,44.09
2022-08-21T05:46:51.290Z,44.19
2022-08-21T05:47:51.291Z,43.90
2022-08-21T05:48:51.292Z,43.80
2022-08-21T05:49:51.293Z,44.09
2022-08-21T05:50:51.309Z,44.12
2022-08-21T05:51:51.294Z,43.71
2022-08-21T05:52:51.422Z,43.51
2022-08-21T05:53:51.296Z,43.71
2022-08-21T05:54:51.297Z,43.61
2022-08-21T05:55:51.296Z,43.80
2022-08-21T05:56:51.296Z,43.51
2022-08-21T05:57:51.299Z,43.80
2022-08-21T05:58:51.297Z,43.51
2022-08-21T05:59:51.302Z,43.71
2022-08-21T06:00:51.299Z,43.22
2022-08-21T06:01:51.368Z,43.71
2022-08-21T06:02:51.335Z,43.61
2022-08-21T06:03:51.304Z,43.61
2022-08-21T06:04:51.301Z,43.51
2022-08-21T06:05:51.303Z,43.22
2022-08-21T06:06:51.304Z,43.32
2022-08-21T06:07:51.305Z,43.51
2022-08-21T06:08:51.305Z,43.32
2022-08-21T06:09:51.307Z,43.12
2022-08-21T06:10:51.305Z,43.32
2022-08-21T06:11:51.306Z,43.22
2022-08-21T06:12:51.308Z,43.32
2022-08-21T06:13:51.309Z,43.32
2022-08-21T06:14:51.309Z,43.22
2022-08-21T06:15:51.310Z,43.32
2022-08-21T06:16:51.311Z,43.22
2022-08-21T06:17:51.311Z,43.41
2022-08-21T06:18:51.311Z,43.22
2022-08-21T06:19:51.314Z,43.51
2022-08-21T06:20:51.313Z,43.34
2022-08-21T06:21:51.313Z,43.22
2022-08-21T06:22:51.349Z,43.32
2022-08-21T06:23:51.314Z,43.51
2022-08-21T06:24:51.315Z,43.51
2022-08-21T06:25:51.320Z,43.51
2022-08-21T06:26:51.316Z,43.41
2022-08-21T06:27:51.318Z,43.41
2022-08-21T06:28:51.317Z,43.41
2022-08-21T06:29:51.319Z,43.51
2022-08-21T06:30:51.318Z,43.61
2022-08-21T06:31:51.319Z,43.51
2022-08-21T06:32:51.404Z,43.41
2022-08-21T06:33:51.324Z,43.41
2022-08-21T06:34:51.323Z,43.32
2022-08-21T06:35:51.323Z,43.32
2022-08-21T06:36:51.321Z,43.32
2022-08-21T06:37:51.324Z,43.51
2022-08-21T06:38:51.977Z,43.22
2022-08-21T06:39:51.388Z,42.83
2022-08-21T06:40:51.328Z,43.32
2022-08-21T06:41:51.327Z,43.22
2022-08-21T06:42:51.386Z,43.22
2022-08-21T06:43:51.333Z,43.22
2022-08-21T06:44:51.328Z,42.93
2022-08-21T06:45:51.329Z,42.74
2022-08-21T06:46:51.328Z,43.12
2022-08-21T06:47:51.328Z,42.93
2022-08-21T06:48:51.329Z,42.93
2022-08-21T06:49:51.334Z,42.93
2022-08-21T06:50:51.331Z,43.02
2022-08-21T06:51:51.331Z,43.02
2022-08-21T06:52:51.337Z,43.02
2022-08-21T06:53:51.334Z,42.83
2022-08-21T06:54:51.333Z,43.12
2022-08-21T06:55:51.336Z,42.93
2022-08-21T06:56:51.336Z,42.93
2022-08-21T06:57:52.706Z,42.93
2022-08-21T06:58:51.336Z,42.93
2022-08-21T06:59:51.339Z,42.93
2022-08-21T07:00:51.338Z,42.93
2022-08-21T07:01:51.418Z,42.93
2022-08-21T07:02:51.338Z,42.93
2022-08-21T07:03:51.346Z,43.02
2022-08-21T07:04:51.340Z,42.74
2022-08-21T07:05:51.346Z,42.83
2022-08-21T07:06:51.341Z,42.93
2022-08-21T07:07:51.343Z,43.02
2022-08-21T07:08:51.341Z,43.12
2022-08-21T07:09:51.345Z,42.83
2022-08-21T07:10:51.345Z,42.83
2022-08-21T07:11:51.347Z,42.93
2022-08-21T07:13:00.032Z,42.83
2022-08-21T07:13:51.347Z,42.74
2022-08-21T07:14:51.346Z,42.83
2022-08-21T07:15:51.346Z,43.12
2022-08-21T07:16:51.347Z,42.83
2022-08-21T07:17:51.348Z,42.93
2022-08-21T07:18:51.348Z,42.93
2022-08-21T07:19:51.351Z,42.83
2022-08-21T07:20:51.349Z,42.83
2022-08-21T07:21:51.352Z,42.83
2022-08-21T07:22:51.389Z,42.83
2022-08-21T07:23:51.352Z,43.12
2022-08-21T07:24:51.352Z,42.83
2022-08-21T07:25:51.352Z,43.02
2022-08-21T07:26:51.352Z,42.83
2022-08-21T07:27:51.355Z,43.02
2022-08-21T07:28:51.356Z,42.93
2022-08-21T07:29:51.355Z,43.02
2022-08-21T07:30:51.363Z,43.12
2022-08-21T07:31:51.358Z,43.12
2022-08-21T07:32:51.501Z,43.02
2022-08-21T07:33:51.358Z,42.93
2022-08-21T07:34:51.358Z,43.12
2022-08-21T07:35:51.360Z,42.93
2022-08-21T07:36:51.359Z,42.93
2022-08-21T07:37:51.362Z,42.83
2022-08-21T07:38:52.707Z,42.93
2022-08-21T07:39:51.397Z,42.93
2022-08-21T07:40:51.361Z,42.83
2022-08-21T07:41:51.363Z,42.93
2022-08-21T07:42:51.420Z,42.83
2022-08-21T07:43:52.893Z,42.93
2022-08-21T07:44:51.364Z,42.93
2022-08-21T07:45:51.365Z,43.02
2022-08-21T07:46:51.365Z,42.93
2022-08-21T07:47:56.705Z,42.93
2022-08-21T07:48:51.367Z,42.93
2022-08-21T07:49:51.369Z,42.83
2022-08-21T07:50:51.375Z,42.83
2022-08-21T07:51:51.377Z,42.93
2022-08-21T07:52:51.432Z,42.93
2022-08-21T07:53:51.372Z,42.95
2022-08-21T07:54:51.370Z,42.93
2022-08-21T07:55:51.371Z,42.93
2022-08-21T07:56:51.372Z,42.93
2022-08-21T07:57:51.372Z,42.93
2022-08-21T07:58:51.374Z,43.05
2022-08-21T07:59:51.374Z,42.83
2022-08-21T08:00:51.449Z,43.02
2022-08-21T08:01:51.375Z,43.02
2022-08-21T08:02:51.455Z,42.93
2022-08-21T08:03:51.377Z,42.74
2022-08-21T08:04:51.378Z,43.02
2022-08-21T08:05:51.377Z,43.02
2022-08-21T08:06:51.378Z,43.02
2022-08-21T08:07:51.378Z,43.05
2022-08-21T08:08:51.380Z,43.02
2022-08-21T08:09:51.380Z,42.83
2022-08-21T08:10:51.381Z,43.02
2022-08-21T08:11:51.380Z,42.93
2022-08-21T08:12:51.416Z,42.83
2022-08-21T08:13:51.382Z,42.93
2022-08-21T08:14:51.383Z,43.02
2022-08-21T08:15:51.384Z,42.93
2022-08-21T08:16:51.385Z,42.93
2022-08-21T08:17:51.384Z,43.12
2022-08-21T08:18:51.386Z,43.02
2022-08-21T08:19:51.385Z,43.02
2022-08-21T08:20:51.389Z,42.85
2022-08-21T08:21:51.388Z,43.22
2022-08-21T08:22:51.460Z,42.93
2022-08-21T08:23:51.389Z,43.02
2022-08-21T08:24:51.389Z,43.22
2022-08-21T08:25:51.389Z,43.22
2022-08-21T08:26:53.971Z,42.93
2022-08-21T08:27:51.392Z,43.32
2022-08-21T08:28:51.392Z,43.41
2022-08-21T08:29:51.393Z,43.22
2022-08-21T08:30:51.397Z,43.22
2022-08-21T08:31:51.607Z,43.61
2022-08-21T08:32:51.466Z,43.32
2022-08-21T08:33:51.394Z,43.51
2022-08-21T08:34:51.395Z,43.02
2022-08-21T08:35:51.394Z,43.51
2022-08-21T08:36:51.398Z,43.71
2022-08-21T08:37:52.241Z,43.22
2022-08-21T08:38:51.649Z,43.22
2022-08-21T08:39:51.451Z,43.51
2022-08-21T08:40:51.400Z,43.02
2022-08-21T08:41:51.399Z,43.51
2022-08-21T08:42:51.434Z,43.32
2022-08-21T08:43:51.400Z,43.71
2022-08-21T08:44:51.403Z,43.41
2022-08-21T08:45:51.402Z,43.41
2022-08-21T08:46:51.404Z,43.34
2022-08-21T08:47:51.402Z,43.61
2022-08-21T08:48:53.137Z,43.41
2022-08-21T08:49:51.406Z,43.32
2022-08-21T08:50:51.409Z,43.41
2022-08-21T08:51:53.119Z,43.32
2022-08-21T08:52:51.459Z,43.32
2022-08-21T08:53:51.408Z,43.41
2022-08-21T08:54:51.411Z,43.32
2022-08-21T08:55:51.452Z,42.85
2022-08-21T08:56:51.410Z,43.32
2022-08-21T08:57:51.412Z,43.41
2022-08-21T08:58:51.410Z,43.44
2022-08-21T08:59:51.422Z,43.32
2022-08-21T09:00:51.506Z,43.32
2022-08-21T09:01:51.518Z,43.41
2022-08-21T09:02:51.445Z,43.32
2022-08-21T09:03:51.413Z,43.51
2022-08-21T09:04:51.414Z,43.41
2022-08-21T09:05:51.415Z,43.22
2022-08-21T09:06:51.415Z,43.41
2022-08-21T09:07:51.415Z,43.22
2022-08-21T09:08:51.418Z,43.32
2022-08-21T09:09:51.416Z,43.32
2022-08-21T09:10:51.419Z,43.41
2022-08-21T09:11:51.418Z,43.22
2022-08-21T09:12:51.421Z,43.32
2022-08-21T09:13:51.421Z,43.32
2022-08-21T09:14:51.420Z,43.32
2022-08-21T09:15:51.421Z,43.12
2022-08-21T09:16:51.553Z,43.41
2022-08-21T09:17:51.422Z,43.22
2022-08-21T09:18:51.422Z,43.51
2022-08-21T09:19:51.422Z,43.41
2022-08-21T09:20:51.449Z,43.41
2022-08-21T09:21:51.426Z,43.22
2022-08-21T09:22:51.437Z,43.41
2022-08-21T09:23:51.426Z,43.22
2022-08-21T09:24:52.169Z,43.12
2022-08-21T09:25:51.426Z,43.22
2022-08-21T09:26:51.428Z,43.22
2022-08-21T09:27:51.429Z,43.71
2022-08-21T09:28:51.432Z,43.22
2022-08-21T09:29:51.429Z,43.71
2022-08-21T09:30:51.432Z,43.41
2022-08-21T09:31:51.432Z,43.22
2022-08-21T09:32:51.432Z,43.71
2022-08-21T09:33:51.433Z,43.61
2022-08-21T09:34:51.434Z,43.51
2022-08-21T09:35:51.434Z,43.51
2022-08-21T09:36:51.442Z,43.90
2022-08-21T09:37:51.436Z,43.41
2022-08-21T09:38:51.436Z,43.80
2022-08-21T09:39:51.468Z,43.71
2022-08-21T09:40:51.437Z,44.00
2022-08-21T09:41:51.438Z,43.80
2022-08-21T09:42:51.492Z,43.90
2022-08-21T09:43:51.438Z,43.80
2022-08-21T09:44:51.441Z,43.80
2022-08-21T09:45:51.439Z,43.32
2022-08-21T09:46:51.440Z,43.80
2022-08-21T09:47:51.440Z,43.71
2022-08-21T09:48:51.443Z,43.71
2022-08-21T09:49:51.443Z,43.80
2022-08-21T09:50:51.444Z,43.80
2022-08-21T09:51:51.443Z,44.09
2022-08-21T09:52:52.096Z,43.80
2022-08-21T09:53:51.445Z,44.09
2022-08-21T09:54:51.445Z,43.80
2022-08-21T09:55:51.445Z,43.71
2022-08-21T09:56:51.447Z,43.61
2022-08-21T09:57:51.447Z,43.80
2022-08-21T09:58:51.447Z,43.80
2022-08-21T09:59:51.451Z,44.09
2022-08-21T10:00:51.561Z,44.19
2022-08-21T10:01:51.450Z,44.09
2022-08-21T10:02:51.450Z,44.09
2022-08-21T10:03:51.452Z,43.80
2022-08-21T10:04:51.451Z,44.19
2022-08-21T10:05:51.452Z,43.80
2022-08-21T10:06:51.453Z,43.92
2022-08-21T10:07:51.454Z,44.19
2022-08-21T10:08:51.456Z,44.19
2022-08-21T10:09:51.465Z,43.90
2022-08-21T10:10:51.456Z,43.90
2022-08-21T10:11:51.456Z,44.09
2022-08-21T10:12:51.575Z,43.90
2022-08-21T10:13:51.457Z,44.09
2022-08-21T10:14:51.459Z,43.90
2022-08-21T10:15:51.459Z,44.02
2022-08-21T10:16:51.461Z,43.80
2022-08-21T10:17:51.459Z,43.90
2022-08-21T10:18:51.462Z,44.19
2022-08-21T10:19:51.460Z,43.90
2022-08-21T10:20:51.463Z,44.19
2022-08-21T10:21:51.463Z,43.71
2022-08-21T10:22:51.510Z,43.73
2022-08-21T10:23:51.464Z,43.80
2022-08-21T10:24:51.464Z,44.09
2022-08-21T10:25:57.040Z,43.80
2022-08-21T10:26:51.467Z,43.90
2022-08-21T10:27:51.465Z,44.09
2022-08-21T10:28:51.466Z,44.09
2022-08-21T10:29:51.470Z,43.90
2022-08-21T10:30:51.469Z,43.71
2022-08-21T10:31:51.469Z,43.80
2022-08-21T10:32:51.651Z,43.71
2022-08-21T10:33:51.470Z,44.19
2022-08-21T10:34:51.471Z,43.80
2022-08-21T10:35:51.472Z,43.80
2022-08-21T10:36:51.473Z,44.09
2022-08-21T10:37:51.474Z,44.09
2022-08-21T10:39:11.768Z,43.80
2022-08-21T10:39:51.546Z,43.61
2022-08-21T10:40:51.476Z,43.80
2022-08-21T10:41:51.475Z,43.80
2022-08-21T10:42:51.606Z,44.00
2022-08-21T10:43:51.475Z,43.51
2022-08-21T10:44:51.479Z,43.80
2022-08-21T10:45:51.478Z,43.80
2022-08-21T10:46:51.481Z,43.61
2022-08-21T10:47:54.843Z,43.80
2022-08-21T10:48:51.480Z,43.51
2022-08-21T10:49:51.480Z,43.51
2022-08-21T10:50:51.482Z,43.54
2022-08-21T10:51:51.481Z,43.32
2022-08-21T10:52:51.544Z,43.61
2022-08-21T10:53:51.482Z,43.61
2022-08-21T10:54:51.483Z,43.71
2022-08-21T10:55:51.483Z,43.61
2022-08-21T10:56:51.486Z,43.51
2022-08-21T10:57:51.485Z,43.12
2022-08-21T10:58:51.487Z,43.12
2022-08-21T10:59:51.486Z,43.22
2022-08-21T11:00:51.558Z,43.41
2022-08-21T11:01:51.488Z,43.41
2022-08-21T11:02:51.583Z,43.32
2022-08-21T11:03:51.488Z,43.41
2022-08-21T11:04:51.490Z,43.12
2022-08-21T11:05:51.490Z,43.41
2022-08-21T11:06:51.491Z,43.22
2022-08-21T11:07:51.508Z,43.22
2022-08-21T11:08:51.495Z,43.32
2022-08-21T11:09:51.493Z,43.32
2022-08-21T11:10:59.352Z,43.12
2022-08-21T11:11:59.338Z,43.22
2022-08-21T11:12:51.939Z,43.41
2022-08-21T11:13:51.495Z,43.41
2022-08-21T11:14:51.496Z,43.22
2022-08-21T11:15:51.496Z,43.32
2022-08-21T11:16:51.498Z,43.51
2022-08-21T11:17:51.503Z,43.41
2022-08-21T11:18:51.498Z,43.51
2022-08-21T11:19:51.498Z,43.32
2022-08-21T11:20:51.500Z,43.51
2022-08-21T11:21:51.500Z,43.61
2022-08-21T11:22:54.960Z,43.22
2022-08-21T11:23:51.502Z,43.22
2022-08-21T11:24:51.503Z,43.24
2022-08-21T11:25:51.502Z,43.22
2022-08-21T11:26:51.597Z,43.05
2022-08-21T11:27:51.508Z,42.95
2022-08-21T11:28:51.507Z,42.93
2022-08-21T11:29:51.506Z,43.05
2022-08-21T11:30:51.507Z,42.83
2022-08-21T11:31:51.507Z,42.93
2022-08-21T11:32:51.564Z,42.93
2022-08-21T11:33:51.509Z,42.93
2022-08-21T11:34:51.510Z,42.93
2022-08-21T11:35:51.509Z,42.95
2022-08-21T11:36:51.511Z,42.83
2022-08-21T11:37:51.510Z,42.93
2022-08-21T11:38:51.512Z,42.83
2022-08-21T11:39:51.538Z,43.12
2022-08-21T11:40:51.514Z,42.83
2022-08-21T11:41:51.513Z,43.02
2022-08-21T11:42:51.568Z,43.12
2022-08-21T11:43:51.514Z,43.02
2022-08-21T11:44:51.517Z,43.02
2022-08-21T11:45:51.518Z,43.12
2022-08-21T11:46:51.525Z,43.24
2022-08-21T11:47:53.859Z,42.66
2022-08-21T11:48:51.520Z,42.83
2022-08-21T11:49:51.521Z,42.64
2022-08-21T11:50:51.522Z,42.44
2022-08-21T11:51:51.567Z,42.44
2022-08-21T11:52:51.562Z,42.44
2022-08-21T11:53:54.039Z,42.35
2022-08-21T11:54:51.860Z,42.54
2022-08-21T11:55:51.525Z,42.54
2022-08-21T11:56:51.524Z,42.66
2022-08-21T11:57:51.524Z,42.54
2022-08-21T11:58:51.526Z,42.74
2022-08-21T11:59:51.526Z,42.54
2022-08-21T12:00:51.529Z,42.35
2022-08-21T12:01:51.674Z,42.64
2022-08-21T12:02:51.557Z,42.25
2022-08-21T12:03:51.528Z,42.25
2022-08-21T12:04:51.531Z,42.54
2022-08-21T12:05:51.531Z,42.44
2022-08-21T12:06:51.531Z,42.44
2022-08-21T12:07:51.530Z,42.36
2022-08-21T12:08:51.532Z,42.66
2022-08-21T12:09:51.532Z,42.74
2022-08-21T12:10:51.534Z,42.74
2022-08-21T12:11:51.532Z,42.74
2022-08-21T12:12:51.592Z,42.44
2022-08-21T12:13:51.535Z,42.56
2022-08-21T12:14:51.535Z,42.54
2022-08-21T12:15:51.537Z,42.27
2022-08-21T12:16:51.537Z,42.15
2022-08-21T12:17:51.538Z,42.05
2022-08-21T12:18:51.537Z,41.88
2022-08-21T12:19:51.539Z,41.86
2022-08-21T12:20:51.539Z,41.98
2022-08-21T12:21:51.550Z,41.86
2022-08-21T12:22:51.864Z,42.05
2022-08-21T12:23:51.541Z,42.15
2022-08-21T12:24:51.543Z,41.96
2022-08-21T12:25:51.544Z,42.35
2022-08-21T12:26:51.542Z,42.27
2022-08-21T12:27:51.543Z,41.96
2022-08-21T12:28:51.543Z,41.88
2022-08-21T12:29:51.546Z,41.96
2022-08-21T12:30:56.107Z,41.86
2022-08-21T12:31:51.547Z,41.78
2022-08-21T12:32:51.594Z,41.96
2022-08-21T12:33:51.548Z,42.08
2022-08-21T12:34:51.547Z,42.15
2022-08-21T12:35:51.549Z,41.47
2022-08-21T12:36:51.550Z,41.77
2022-08-21T12:37:51.551Z,41.69
2022-08-21T12:38:51.549Z,41.57
2022-08-21T12:39:51.590Z,41.30
2022-08-21T12:40:51.551Z,41.39
2022-08-21T12:41:51.555Z,41.28
2022-08-21T12:42:58.715Z,41.20
2022-08-21T12:43:51.555Z,41.30
2022-08-21T12:44:51.554Z,41.49
2022-08-21T12:45:51.556Z,41.39
2022-08-21T12:46:51.555Z,41.57
2022-08-21T12:47:51.556Z,41.57
2022-08-21T12:48:51.561Z,41.18
2022-08-21T12:49:51.558Z,41.30
2022-08-21T12:50:51.559Z,41.20
2022-08-21T12:51:51.559Z,41.28
2022-08-21T12:52:51.582Z,41.18